Time;durP1;ratioP1;P1;durP2;ratioP2;P2;SDS_P1;SDS_P2;PMS_P1;PMS_P2;Temp;Humidity;BMP_temperature;BMP_pressure;BME280_temperature;BME280_humidity;BME280_pressure;Samples;Min_cycle;Max_cycle;Signal;HPM_P1;HPM_P2
2023/04/29 00:00:44;;;;;;;;;;;;;;;6.06;76.75;101244.56;5071925;28;20380;-68
2023/04/29 00:03:10;;;;;;;;;;;;;;;6.05;76.15;101243.72;5072522;28;19920;-68
2023/04/29 00:05:35;;;;;;;;;;;;;;;6.04;76.64;101252.63;5072518;28;19916;-70
2023/04/29 00:08:00;;;;;;;;;;;;;;;6.00;76.53;101250.34;5072319;28;19919;-67
2023/04/29 00:10:26;;;;;;;;;;;;;;;5.96;77.47;101241.81;5072387;28;19912;-66
2023/04/29 00:12:51;;;;;;;;;;;;;;;5.97;76.87;101247.94;5072510;28;19928;-67
2023/04/29 00:15:17;;;;;;;;;;;;;;;5.99;77.59;101240.72;5072352;28;20295;-68
2023/04/29 00:17:44;;;;;;;;;;;;;;;6.00;77.71;101248.53;5072362;28;19916;-66
2023/04/29 00:20:10;;;;;;;;;;;;;;;6.00;77.84;101237.13;5072291;28;20403;-67
2023/04/29 00:22:36;;;;;;;;;;;;;;;6.03;77.27;101239.50;5072267;28;19913;-68
2023/04/29 00:25:01;;;;;;;;;;;;;;;6.07;76.75;101240.94;5072024;28;20288;-68
2023/04/29 00:27:26;;;;;;;;;;;;;;;6.09;76.83;101244.34;5072299;28;20271;-68
2023/04/29 00:29:52;;;;;;;;;;;;;;;6.09;79.00;101241.69;5072277;28;20397;-67
2023/04/29 00:32:18;;;;;;;;;;;;;;;6.05;78.85;101243.72;5072402;28;20383;-68
2023/04/29 00:34:43;;;;;;;;;;;;;;;6.01;80.26;101238.78;5071051;28;19913;-67
2023/04/29 00:37:08;;;;;;;;;;;;;;;6.00;79.82;101237.97;5072151;28;19967;-68
2023/04/29 00:39:34;;;;;;;;;;;;;;;5.97;82.17;101242.66;5072230;28;19939;-69
2023/04/29 00:41:59;;;;;;;;;;;;;;;5.92;81.65;101247.47;5072545;28;20255;-69
2023/04/29 00:44:24;;;;;;;;;;;;;;;5.93;81.29;101238.56;5070711;28;20006;-68
2023/04/29 00:46:50;;;;;;;;;;;;;;;5.95;79.97;101239.28;5072191;28;20018;-66
2023/04/29 00:49:15;;;;;;;;;;;;;;;5.86;82.77;101246.97;5071968;28;19958;-68
2023/04/29 00:51:41;;;;;;;;;;;;;;;5.70;82.93;101241.19;5072059;28;19958;-66
2023/04/29 00:54:07;;;;;;;;;;;;;;;5.59;83.33;101249.09;5071739;28;19952;-67
2023/04/29 00:56:34;;;;;;;;;;;;;;;5.43;84.98;101248.59;5071953;28;20387;-66
2023/04/29 00:59:00;;;;;;;;;;;;;;;5.32;86.16;101238.84;5072048;28;19919;-67
2023/04/29 01:01:26;;;;;;;;;;;;;;;5.21;88.67;101247.59;5071963;28;20015;-67
2023/04/29 01:03:52;;;;;;;;;;;;;;;5.17;87.51;101238.19;5071792;28;20094;-67
2023/04/29 01:06:36;;;;;;;;;;;;;;;5.19;88.58;101241.56;5071755;28;19916;-67
2023/04/29 01:09:08;;;;;;;;;;;;;;;5.24;87.34;101236.81;5071716;28;19921;-66
2023/04/29 01:11:38;;;;;;;;;;;;;;;5.28;89.09;101235.63;5073545;28;19913;-67
2023/04/29 01:14:04;;;;;;;;;;;;;;;5.33;87.33;101237.06;5075579;28;19919;-67
2023/04/29 01:16:36;;;;;;;;;;;;;;;5.34;86.42;101231.66;5074534;28;19912;-67
2023/04/29 01:19:06;;;;;;;;;;;;;;;5.34;86.16;101239.56;5074272;28;19912;-66
2023/04/29 01:21:31;;;;;;;;;;;;;;;5.34;85.91;101236.09;5075250;28;20269;-67
2023/04/29 01:23:57;;;;;;;;;;;;;;;5.34;85.86;101238.75;5075521;28;19984;-67
2023/04/29 01:26:23;;;;;;;;;;;;;;;5.36;85.85;101248.22;5075190;28;19912;-66
2023/04/29 01:28:57;;;;;;;;;;;;;;;5.39;86.59;101247.16;5075573;28;19993;-67
2023/04/29 01:31:29;;;;;;;;;;;;;;;5.41;86.31;101242.59;5075165;28;20057;-66
2023/04/29 01:34:00;;;;;;;;;;;;;;;5.32;89.00;101251.22;5074872;28;19919;-67
2023/04/29 01:36:28;;;;;;;;;;;;;;;5.21;88.23;101239.69;5075213;28;19957;-67
2023/04/29 01:39:03;;;;;;;;;;;;;;;5.04;91.10;101242.75;5075143;28;19912;-67
2023/04/29 01:41:42;;;;;;;;;;;;;;;4.93;91.70;101232.16;5073735;28;20014;-67
2023/04/29 01:44:09;;;;;;;;;;;;;;;4.83;91.78;101239.91;5075402;28;20060;-66
2023/04/29 01:46:35;;;;;;;;;;;;;;;4.77;91.79;101240.34;5074663;28;20020;-67
2023/04/29 01:49:00;;;;;;;;;;;;;;;4.71;90.99;101242.63;5074576;28;19986;-67
2023/04/29 01:51:27;;;;;;;;;;;;;;;4.66;91.71;101240.31;5074830;28;20364;-67
2023/04/29 01:53:52;;;;;;;;;;;;;;;4.60;92.95;101246.88;5074890;28;19913;-65
2023/04/29 01:56:17;;;;;;;;;;;;;;;4.55;92.51;101238.44;5074585;28;19913;-68
2023/04/29 01:58:43;;;;;;;;;;;;;;;4.53;92.11;101237.72;5074614;28;19960;-66
2023/04/29 02:01:09;;;;;;;;;;;;;;;4.50;93.36;101247.66;5074800;28;20402;-68
2023/04/29 02:03:35;;;;;;;;;;;;;;;4.49;93.73;101249.47;5074779;28;19919;-67
2023/04/29 02:06:01;;;;;;;;;;;;;;;4.49;93.05;101246.81;5074732;28;20338;-66
2023/04/29 02:08:26;;;;;;;;;;;;;;;4.43;96.39;101249.91;5074562;28;19912;-67
2023/04/29 02:10:52;;;;;;;;;;;;;;;4.35;96.69;101247.84;5074943;28;20018;-67
2023/04/29 02:13:18;;;;;;;;;;;;;;;4.33;97.61;101251.50;5077866;28;20257;-65
2023/04/29 02:15:43;;;;;;;;;;;;;;;4.33;97.39;101243.59;5076928;28;19916;-66
2023/04/29 02:18:08;;;;;;;;;;;;;;;4.33;97.75;101248.88;5074743;28;19912;-66
2023/04/29 02:20:34;;;;;;;;;;;;;;;4.34;97.55;101247.94;5075348;28;19916;-67
2023/04/29 02:22:59;;;;;;;;;;;;;;;4.33;97.99;101243.59;5073371;28;19919;-67
2023/04/29 02:25:25;;;;;;;;;;;;;;;4.33;97.08;101240.94;5074220;28;19912;-67
2023/04/29 02:27:50;;;;;;;;;;;;;;;4.34;97.98;101232.13;5074150;28;20294;-67
2023/04/29 02:30:16;;;;;;;;;;;;;;;4.34;97.51;101232.97;5075358;28;19920;-67
2023/04/29 02:32:41;;;;;;;;;;;;;;;4.41;98.30;101232.50;5074489;28;19912;-67
2023/04/29 02:35:07;;;;;;;;;;;;;;;4.47;98.41;101235.53;5074184;28;19930;-66
2023/04/29 02:37:32;;;;;;;;;;;;;;;4.55;100.00;101241.09;5074701;28;20261;-68
2023/04/29 02:39:58;;;;;;;;;;;;;;;4.69;99.92;101231.34;5074109;28;20372;-67
2023/04/29 02:42:23;;;;;;;;;;;;;;;4.88;98.73;101231.63;5073993;28;19970;-67
2023/04/29 02:44:48;;;;;;;;;;;;;;;5.01;98.73;101232.41;5073604;28;19916;-68
2023/04/29 02:47:14;;;;;;;;;;;;;;;5.16;98.38;101235.69;5073788;28;19923;-68
2023/04/29 02:49:39;;;;;;;;;;;;;;;5.21;97.91;101239.69;5073932;28;19919;-69
2023/04/29 02:52:05;;;;;;;;;;;;;;;5.19;96.96;101236.28;5073819;28;20394;-68
2023/04/29 02:54:30;;;;;;;;;;;;;;;5.20;96.57;101237.13;5073633;28;20272;-68
2023/04/29 02:56:56;;;;;;;;;;;;;;;5.26;96.50;101234.88;5073473;28;20011;-67
2023/04/29 02:59:21;;;;;;;;;;;;;;;5.38;96.65;101234.91;5073806;28;19958;-68
2023/04/29 03:01:47;;;;;;;;;;;;;;;5.46;96.17;101235.13;5073408;28;20011;-68
2023/04/29 03:04:12;;;;;;;;;;;;;;;5.60;95.36;101241.06;5073650;28;20320;-68
2023/04/29 03:06:37;;;;;;;;;;;;;;;5.87;93.71;101238.06;5073471;28;20299;-67
2023/04/29 03:09:03;;;;;;;;;;;;;;;6.13;92.88;101243.13;5073444;28;19912;-69
2023/04/29 03:11:28;;;;;;;;;;;;;;;6.28;91.10;101241.03;5073252;28;19917;-67
2023/04/29 03:13:54;;;;;;;;;;;;;;;6.08;92.69;101245.31;5073093;28;19935;-67
2023/04/29 03:16:20;;;;;;;;;;;;;;;5.99;93.50;101240.72;5073165;28;20352;-67
2023/04/29 03:18:45;;;;;;;;;;;;;;;5.85;93.45;101244.44;5073072;28;19912;-68
2023/04/29 03:21:11;;;;;;;;;;;;;;;5.73;94.60;101240.09;5073185;28;19958;-67
2023/04/29 03:23:38;;;;;;;;;;;;;;;5.72;93.23;101241.91;5072988;28;19959;-68
2023/04/29 03:26:04;;;;;;;;;;;;;;;5.72;94.37;101238.41;5073012;28;19948;-68
2023/04/29 03:28:29;;;;;;;;;;;;;;;5.75;94.31;101244.28;5072790;28;19975;-68
2023/04/29 03:30:56;;;;;;;;;;;;;;;5.82;92.61;101240.22;5073022;28;19913;-67
2023/04/29 03:33:21;;;;;;;;;;;;;;;5.82;93.37;101244.69;5073027;28;19912;-69
2023/04/29 03:35:46;;;;;;;;;;;;;;;5.71;93.65;101245.50;5072723;28;19917;-68
2023/04/29 03:38:12;;;;;;;;;;;;;;;5.68;93.79;101245.75;5072735;28;19966;-67
2023/04/29 03:40:37;;;;;;;;;;;;;;;5.63;93.87;101253.19;5072620;28;19983;-69
2023/04/29 03:43:03;;;;;;;;;;;;;;;5.65;93.22;101248.63;5072626;28;19970;-68
2023/04/29 03:45:29;;;;;;;;;;;;;;;5.66;93.04;101245.03;5071291;28;20307;-67
2023/04/29 03:47:54;;;;;;;;;;;;;;;5.62;92.24;101254.16;5072678;28;19928;-68
2023/04/29 03:50:20;;;;;;;;;;;;;;;5.58;93.00;101253.53;5071331;28;19959;-68
2023/04/29 03:52:45;;;;;;;;;;;;;;;5.64;92.29;101257.50;5072326;28;19935;-68
2023/04/29 03:55:11;;;;;;;;;;;;;;;5.70;92.04;101256.19;5072329;28;20398;-68
2023/04/29 03:57:37;;;;;;;;;;;;;;;5.80;92.64;101258.03;5072281;28;19917;-68
2023/04/29 04:00:02;;;;;;;;;;;;;;;5.95;92.00;101261.28;5072614;28;19958;-68
2023/04/29 04:02:28;;;;;;;;;;;;;;;5.98;91.28;101252.25;5072487;28;19966;-68
2023/04/29 04:04:54;;;;;;;;;;;;;;;6.03;90.79;101252.72;5072675;28;20310;-68
2023/04/29 04:07:19;;;;;;;;;;;;;;;6.07;89.65;101259.47;5072564;28;20321;-67
2023/04/29 04:09:44;;;;;;;;;;;;;;;6.12;89.12;101247.56;5072339;28;19912;-68
2023/04/29 04:12:10;;;;;;;;;;;;;;;6.17;88.94;101244.56;5072203;28;20432;-69
2023/04/29 04:14:35;;;;;;;;;;;;;;;6.09;88.75;101242.53;5072487;28;19920;-68
2023/04/29 04:17:00;;;;;;;;;;;;;;;6.19;88.85;101250.56;5072525;28;19970;-68
2023/04/29 04:19:27;;;;;;;;;;;;;;;6.19;89.37;101245.28;5072347;28;20012;-70
2023/04/29 04:21:53;;;;;;;;;;;;;;;6.25;88.38;101242.13;5071012;28;19942;-68
2023/04/29 04:24:19;;;;;;;;;;;;;;;6.22;88.54;101248.50;5072134;28;19913;-68
2023/04/29 04:26:44;;;;;;;;;;;;;;;6.12;88.11;101242.28;5072239;28;19916;-69
2023/04/29 04:29:09;;;;;;;;;;;;;;;6.06;88.58;101244.56;5072151;28;19939;-68
2023/04/29 04:31:35;;;;;;;;;;;;;;;6.00;89.38;101245.06;5072550;28;19966;-69
2023/04/29 04:34:01;;;;;;;;;;;;;;;5.91;90.71;101238.69;5072233;28;19957;-68
2023/04/29 04:36:27;;;;;;;;;;;;;;;5.88;90.67;101239.75;5072075;28;20274;-68
2023/04/29 04:38:52;;;;;;;;;;;;;;;5.76;90.46;101251.25;5072183;28;19935;-68
2023/04/29 04:41:17;;;;;;;;;;;;;;;5.81;90.80;101243.84;5072189;28;20421;-68
2023/04/29 04:43:46;;;;;;;;;;;;;;;5.93;89.51;101246.50;5071919;28;19917;-69
2023/04/29 04:46:13;;;;;;;;;;;;;;;5.99;89.13;101241.56;5073417;28;19970;-69
2023/04/29 04:48:38;;;;;;;;;;;;;;;6.08;87.99;101240.03;5075967;28;19920;-67
2023/04/29 04:51:07;;;;;;;;;;;;;;;6.30;87.13;101249.69;5076035;28;19912;-68
2023/04/29 04:53:33;;;;;;;;;;;;;;;6.65;85.10;101246.84;5076125;28;19919;-68
2023/04/29 04:56:01;;;;;;;;;;;;;;;6.89;84.90;101242.19;5074405;28;19912;-68
2023/04/29 04:58:27;;;;;;;;;;;;;;;7.13;81.54;101242.78;5075933;28;19913;-69
2023/04/29 05:00:52;;;;;;;;;;;;;;;6.97;82.43;101245.06;5076032;28;20405;-67
2023/04/29 05:03:17;;;;;;;;;;;;;;;6.83;83.49;101242.69;5075745;28;19917;-69
2023/04/29 05:05:43;;;;;;;;;;;;;;;6.84;82.30;101236.44;5075776;28;19912;-70
2023/04/29 05:08:08;;;;;;;;;;;;;;;6.81;82.33;101239.34;5075624;28;20329;-68
2023/04/29 05:10:36;;;;;;;;;;;;;;;6.82;81.91;101238.38;5075625;28;19919;-69
2023/04/29 05:13:02;;;;;;;;;;;;;;;6.79;82.42;101246.56;5075737;28;19920;-68
2023/04/29 05:15:27;;;;;;;;;;;;;;;6.72;82.25;101240.94;5074158;28;19916;-67
2023/04/29 05:17:52;;;;;;;;;;;;;;;6.75;82.37;101237.19;5075424;28;19912;-68
2023/04/29 05:20:19;;;;;;;;;;;;;;;6.53;82.51;101240.75;5075395;28;19919;-68
2023/04/29 05:22:44;;;;;;;;;;;;;;;6.43;83.17;101240.66;5075444;28;20368;-69
2023/04/29 05:25:10;;;;;;;;;;;;;;;6.51;82.95;101243.53;5075183;28;19912;-69
2023/04/29 05:27:35;;;;;;;;;;;;;;;6.67;82.43;101242.28;5075438;28;19935;-69
2023/04/29 05:30:01;;;;;;;;;;;;;;;6.84;82.08;101241.72;5073976;28;19956;-68
2023/04/29 05:32:26;;;;;;;;;;;;;;;7.08;80.57;101247.63;5075242;28;19962;-68
2023/04/29 05:34:51;;;;;;;;;;;;;;;7.35;79.23;101248.94;5075476;28;20327;-67
2023/04/29 05:37:17;;;;;;;;;;;;;;;7.46;78.30;101243.56;5075282;28;20852;-68
2023/04/29 05:39:42;;;;;;;;;;;;;;;7.53;78.16;101242.09;5075004;28;19912;-69
2023/04/29 05:42:07;;;;;;;;;;;;;;;7.53;78.41;101250.03;5073775;28;20394;-69
2023/04/29 05:44:33;;;;;;;;;;;;;;;7.37;78.70;101244.34;5074858;28;19916;-68
2023/04/29 05:46:59;;;;;;;;;;;;;;;7.31;78.26;101247.53;5074654;28;19921;-69
2023/04/29 05:49:24;;;;;;;;;;;;;;;7.31;78.29;101250.16;5074991;28;19999;-67
2023/04/29 05:51:49;;;;;;;;;;;;;;;7.36;78.61;101250.63;5074868;28;20279;-68
2023/04/29 05:54:15;;;;;;;;;;;;;;;7.63;78.34;101248.25;5074737;28;20252;-70
2023/04/29 05:56:40;;;;;;;;;;;;;;;7.73;77.03;101246.50;5071133;28;19932;-67
2023/04/29 05:59:05;;;;;;;;;;;;;;;7.45;77.72;101250.66;5073691;28;20011;-68
2023/04/29 06:01:31;;;;;;;;;;;;;;;7.33;79.09;101248.22;5074516;28;19912;-68
2023/04/29 06:03:57;;;;;;;;;;;;;;;7.38;79.24;101248.66;5074304;28;20020;-68
2023/04/29 06:06:22;;;;;;;;;;;;;;;7.38;78.91;101248.66;5074201;28;19936;-69
2023/04/29 06:08:47;;;;;;;;;;;;;;;7.20;78.62;101250.22;5072855;28;19979;-68
2023/04/29 06:11:13;;;;;;;;;;;;;;;7.08;79.93;101252.09;5072903;28;19939;-68
2023/04/29 06:13:39;;;;;;;;;;;;;;;7.19;80.01;101248.53;5074033;28;20417;-70
2023/04/29 06:16:04;;;;;;;;;;;;;;;7.35;78.98;101257.72;5073883;28;19919;-68
2023/04/29 06:18:30;;;;;;;;;;;;;;;7.20;79.68;101255.50;5074598;28;19935;-68
2023/04/29 06:20:55;;;;;;;;;;;;;;;7.32;79.50;101249.19;5077352;28;20012;-70
2023/04/29 06:23:20;;;;;;;;;;;;;;;7.39;78.77;101251.19;5077652;28;19935;-68
2023/04/29 06:25:45;;;;;;;;;;;;;;;7.53;78.89;101247.38;5074259;28;20264;-68
2023/04/29 06:28:11;;;;;;;;;;;;;;;7.57;77.90;101248.78;5074709;28;19958;-70
2023/04/29 06:30:36;;;;;;;;;;;;;;;7.66;77.31;101252.47;5074079;28;20431;-70
2023/04/29 06:33:01;;;;;;;;;;;;;;;7.84;76.49;101255.34;5073408;28;20392;-71
2023/04/29 06:35:27;;;;;;;;;;;;;;;7.77;76.08;101253.19;5069727;28;19923;-68
2023/04/29 06:37:52;;;;;;;;;;;;;;;7.64;76.50;101260.53;5053598;28;20267;-67
2023/04/29 06:40:18;;;;;;;;;;;;;;;7.70;76.86;101259.16;5053209;28;19913;-69
2023/04/29 06:42:43;;;;;;;;;;;;;;;7.90;76.61;101260.13;5053568;28;19920;-69
2023/04/29 06:45:09;;;;;;;;;;;;;;;7.98;74.97;101262.94;5053263;28;19916;-68
2023/04/29 06:47:35;;;;;;;;;;;;;;;7.85;75.93;101264.97;5053470;28;19940;-69
2023/04/29 06:50:00;;;;;;;;;;;;;;;7.56;76.84;101273.63;5053860;28;19948;-68
2023/04/29 06:52:25;;;;;;;;;;;;;;;7.52;77.70;101264.25;5053690;28;19917;-70
2023/04/29 06:54:51;;;;;;;;;;;;;;;7.71;76.73;101271.47;5053359;28;19928;-69
2023/04/29 06:57:16;;;;;;;;;;;;;;;7.81;76.34;101274.19;5053544;28;19913;-68
2023/04/29 06:59:41;;;;;;;;;;;;;;;7.75;75.37;101278.16;5053521;28;19913;-68
2023/04/29 07:02:07;;;;;;;;;;;;;;;7.67;75.48;101270.03;5053819;28;20284;-71
2023/04/29 07:04:32;;;;;;;;;;;;;;;7.57;76.29;101277.13;5053507;28;19912;-70
2023/04/29 07:06:58;;;;;;;;;;;;;;;7.45;76.97;101274.50;5053326;28;19986;-68
2023/04/29 07:09:25;;;;;;;;;;;;;;;7.47;77.15;101275.22;5051574;28;20295;-73
2023/04/29 07:11:50;;;;;;;;;;;;;;;7.55;76.00;101266.66;5053107;28;20015;-68
2023/04/29 07:14:16;;;;;;;;;;;;;;;7.68;76.37;101264.59;5052560;28;20424;-68
2023/04/29 07:16:41;;;;;;;;;;;;;;;7.63;74.40;101279.22;5053306;28;19913;-69
2023/04/29 07:19:06;;;;;;;;;;;;;;;7.58;74.61;101273.50;5053138;28;19913;-71
2023/04/29 07:21:32;;;;;;;;;;;;;;;7.85;74.66;101273.78;5068735;28;19912;-68
2023/04/29 07:23:59;;;;;;;;;;;;;;;8.10;74.21;101275.16;5072532;28;19973;-67
2023/04/29 07:26:25;;;;;;;;;;;;;;;8.13;73.11;101272.22;5072606;28;20448;-72
2023/04/29 07:28:50;;;;;;;;;;;;;;;8.10;71.71;101276.97;5072980;28;19955;-72
2023/04/29 07:31:16;;;;;;;;;;;;;;;8.18;71.71;101279.78;5073116;28;20392;-71
2023/04/29 07:33:41;;;;;;;;;;;;;;;8.36;70.75;101279.00;5073010;28;20379;-70
2023/04/29 07:36:07;;;;;;;;;;;;;;;8.33;69.41;101279.28;5071397;28;20375;-72
2023/04/29 07:38:33;;;;;;;;;;;;;;;8.07;71.47;101284.19;5071531;28;20279;-72
2023/04/29 07:40:59;;;;;;;;;;;;;;;7.78;72.25;101278.75;5075247;28;19999;-69
2023/04/29 07:43:24;;;;;;;;;;;;;;;7.54;73.30;101280.03;5076479;28;19919;-75
2023/04/29 07:45:50;;;;;;;;;;;;;;;7.31;74.11;101281.97;5073084;28;19924;-71
2023/04/29 07:48:18;;;;;;;;;;;;;;;7.31;74.14;101284.59;5071016;28;20317;-75
2023/04/29 07:50:44;;;;;;;;;;;;;;;7.29;73.56;101290.03;5073402;28;19962;-74
2023/04/29 07:53:09;;;;;;;;;;;;;;;7.42;73.67;101293.31;5072077;28;19924;-70
2023/04/29 07:55:36;;;;;;;;;;;;;;;7.35;73.03;101296.63;5071421;28;19920;-70
2023/04/29 07:58:01;;;;;;;;;;;;;;;7.28;72.53;101295.47;5069701;28;19975;-69
2023/04/29 08:00:27;;;;;;;;;;;;;;;7.23;72.23;101297.63;5069665;28;20110;-69
2023/04/29 08:02:56;;;;;;;;;;;;;;;7.27;72.74;101307.88;5071580;28;19916;-68
2023/04/29 08:05:22;;;;;;;;;;;;;;;7.22;72.06;101301.25;5071632;28;19912;-69
2023/04/29 08:07:48;;;;;;;;;;;;;;;7.04;74.16;101322.19;5071474;28;19923;-68
2023/04/29 08:10:13;;;;;;;;;;;;;;;6.64;79.54;101332.50;5071802;28;20369;-66
2023/04/29 08:12:38;;;;;;;;;;;;;;;6.34;82.10;101351.66;5072010;28;19912;-69
2023/04/29 08:15:04;;;;;;;;;;;;;;;6.01;85.22;101355.97;5071902;28;19920;-69
2023/04/29 08:17:30;;;;;;;;;;;;;;;5.85;86.25;101366.88;5071642;28;20275;-68
2023/04/29 08:19:55;;;;;;;;;;;;;;;5.72;87.68;101362.63;5070572;28;20356;-67
2023/04/29 08:22:21;;;;;;;;;;;;;;;5.67;89.26;101357.69;5070834;28;19921;-69
2023/04/29 08:24:47;;;;;;;;;;;;;;;5.66;88.77;101371.03;5071685;28;19912;-69
2023/04/29 08:27:13;;;;;;;;;;;;;;;5.32;92.91;101367.44;5072020;28;20008;-69
2023/04/29 08:29:39;;;;;;;;;;;;;;;5.33;94.33;101363.81;5071214;28;19932;-69
2023/04/29 08:32:04;;;;;;;;;;;;;;;5.37;94.95;101365.28;5071507;28;19913;-68
2023/04/29 08:34:30;;;;;;;;;;;;;;;5.60;94.75;101361.75;5071754;28;19912;-70
2023/04/29 08:36:56;;;;;;;;;;;;;;;5.79;93.86;101362.06;5071095;28;19917;-70
2023/04/29 08:39:21;;;;;;;;;;;;;;;5.97;91.75;101369.56;5071739;28;20776;-68
2023/04/29 08:41:48;;;;;;;;;;;;;;;6.24;92.28;101362.13;5070434;28;19920;-68
2023/04/29 08:44:14;;;;;;;;;;;;;;;6.53;90.75;101358.03;5071392;28;19916;-67
2023/04/29 08:46:40;;;;;;;;;;;;;;;6.97;88.90;101366.88;5071687;28;19975;-69
2023/04/29 08:49:06;;;;;;;;;;;;;;;7.36;87.88;101367.19;5071520;28;20019;-68
2023/04/29 08:51:32;;;;;;;;;;;;;;;7.73;87.01;101357.84;5071420;28;19972;-68
2023/04/29 08:53:57;;;;;;;;;;;;;;;8.11;85.06;101363.53;5071468;28;19978;-70
2023/04/29 08:56:23;;;;;;;;;;;;;;;8.14;82.55;101353.50;5072728;28;19913;-70
2023/04/29 08:58:57;;;;;;;;;;;;;;;8.00;82.02;101361.78;5075500;28;19916;-69
2023/04/29 09:01:23;;;;;;;;;;;;;;;7.57;82.91;101356.63;5071394;28;19912;-71
2023/04/29 09:04:08;;;;;;;;;;;;;;;7.49;83.77;101362.56;5071389;28;20265;-69
2023/04/29 09:06:33;;;;;;;;;;;;;;;7.72;83.02;101371.22;5070795;28;20015;-67
2023/04/29 09:09:00;;;;;;;;;;;;;;;7.68;81.86;101367.16;5069235;28;20007;-69
2023/04/29 09:11:26;;;;;;;;;;;;;;;7.72;83.34;101382.69;5070410;28;19956;-69
2023/04/29 09:13:57;;;;;;;;;;;;;;;7.24;83.11;101392.06;5071497;28;19970;-72
2023/04/29 09:16:22;;;;;;;;;;;;;;;6.41;87.31;101401.34;5071433;28;19938;-74
2023/04/29 09:18:49;;;;;;;;;;;;;;;6.04;89.33;101413.06;5071520;28;19912;-72
2023/04/29 09:21:21;;;;;;;;;;;;;;;5.75;91.43;101387.00;5071846;28;19912;-71
2023/04/29 09:23:47;;;;;;;;;;;;;;;5.66;93.95;101392.16;5071662;28;19912;-72
2023/04/29 09:26:13;;;;;;;;;;;;;;;5.54;95.14;101384.22;5072523;28;20036;-69
2023/04/29 09:28:43;;;;;;;;;;;;;;;5.89;96.85;101383.34;5071785;28;19916;-69
2023/04/29 09:31:10;;;;;;;;;;;;;;;6.19;94.45;101385.44;5072152;28;19913;-73
2023/04/29 09:33:51;;;;;;;;;;;;;;;6.42;94.32;101391.59;5075205;28;19912;-70
2023/04/29 09:36:36;;;;;;;;;;;;;;;6.52;94.68;101387.25;5073291;28;19952;-69
2023/04/29 09:39:03;;;;;;;;;;;;;;;6.61;93.15;101401.56;5075385;28;19970;-70
2023/04/29 09:41:28;;;;;;;;;;;;;;;6.75;91.25;101403.97;5074953;28;20455;-67
2023/04/29 09:44:12;;;;;;;;;;;;;;;7.01;90.29;101405.38;5074373;28;19917;-66
2023/04/29 09:46:38;;;;;;;;;;;;;;;7.15;89.14;101415.69;5074497;28;19928;-69
2023/04/29 09:49:03;;;;;;;;;;;;;;;7.17;89.71;101422.66;5075169;28;19917;-70
2023/04/29 09:51:31;;;;;;;;;;;;;;;7.06;88.40;101429.66;5075147;28;19968;-69
2023/04/29 09:53:58;;;;;;;;;;;;;;;7.38;88.76;101428.88;5074821;28;19923;-70
2023/04/29 09:56:27;;;;;;;;;;;;;;;7.72;88.21;101421.59;5074561;28;19947;-71
2023/04/29 09:58:53;;;;;;;;;;;;;;;7.73;87.62;101426.78;5074471;28;19991;-67
2023/04/29 10:01:20;;;;;;;;;;;;;;;7.34;86.21;101428.28;5074137;28;20003;-70
2023/04/29 10:03:47;;;;;;;;;;;;;;;6.95;88.43;101432.34;5074085;28;19920;-67
2023/04/29 10:06:13;;;;;;;;;;;;;;;6.98;88.86;101426.81;5073664;28;19926;-67
2023/04/29 10:08:40;;;;;;;;;;;;;;;6.85;89.36;101426.09;5073788;28;20383;-67
2023/04/29 10:11:05;;;;;;;;;;;;;;;6.91;90.77;101435.34;5072721;28;20419;-69
2023/04/29 10:13:33;;;;;;;;;;;;;;;6.96;89.91;101438.50;5073978;28;19928;-68
2023/04/29 10:16:16;;;;;;;;;;;;;;;6.79;90.75;101438.00;5073688;28;19912;-68
2023/04/29 10:18:47;;;;;;;;;;;;;;;6.70;89.19;101432.63;5073681;28;19917;-68
2023/04/29 10:21:13;;;;;;;;;;;;;;;6.84;89.43;101437.66;5074140;28;20429;-67
2023/04/29 10:23:38;;;;;;;;;;;;;;;7.03;90.24;101439.69;5074182;28;19920;-69
2023/04/29 10:26:04;;;;;;;;;;;;;;;7.10;87.58;101435.56;5074979;28;19912;-69
2023/04/29 10:28:31;;;;;;;;;;;;;;;7.13;88.28;101440.59;5075584;28;19913;-69
2023/04/29 10:30:57;;;;;;;;;;;;;;;6.99;87.57;101439.09;5075782;28;19936;-69
2023/04/29 10:33:23;;;;;;;;;;;;;;;7.17;87.12;101441.19;5075110;28;20330;-68
2023/04/29 10:35:49;;;;;;;;;;;;;;;7.37;87.02;101437.78;5074444;28;19919;-67
2023/04/29 10:38:44;;;;;;;;;;;;;;;7.34;81.14;101443.34;5074366;28;19959;-68
2023/04/29 10:41:24;;;;;;;;;;;;;;;7.26;79.01;101445.78;5075125;28;19985;-66
2023/04/29 10:43:52;;;;;;;;;;;;;;;6.97;81.11;101446.31;5071409;28;19916;-73
2023/04/29 10:46:22;;;;;;;;;;;;;;;7.11;81.97;101447.84;5073681;28;19921;-69
2023/04/29 10:48:51;;;;;;;;;;;;;;;7.20;82.19;101454.19;5073348;28;19917;-73
2023/04/29 10:51:30;;;;;;;;;;;;;;;7.32;83.76;101458.50;5073201;28;19966;-68
2023/04/29 10:54:09;;;;;;;;;;;;;;;7.13;78.68;101457.34;5073113;28;19994;-68
2023/04/29 10:56:40;;;;;;;;;;;;;;;7.07;80.54;101457.84;5072920;28;19912;-67
2023/04/29 10:59:16;;;;;;;;;;;;;;;7.21;80.71;101458.53;5072782;28;19919;-69
2023/04/29 11:01:41;;;;;;;;;;;;;;;7.09;76.24;101457.72;5072926;28;20038;-68
2023/04/29 11:04:08;;;;;;;;;;;;;;;6.91;74.56;101461.81;5072977;28;20014;-68
2023/04/29 11:06:33;;;;;;;;;;;;;;;6.82;76.01;101461.59;5072738;28;19916;-70
2023/04/29 11:09:03;;;;;;;;;;;;;;;6.80;75.83;101470.63;5072909;28;19920;-68
2023/04/29 11:11:45;;;;;;;;;;;;;;;6.84;74.30;101472.06;5070561;28;19921;-69
2023/04/29 11:14:11;;;;;;;;;;;;;;;7.13;73.81;101465.28;5070675;28;19912;-70
2023/04/29 11:16:37;;;;;;;;;;;;;;;7.30;74.22;101465.75;5072791;28;19912;-67
2023/04/29 11:19:03;;;;;;;;;;;;;;;7.37;74.27;101456.31;5072357;28;19923;-68
2023/04/29 11:21:29;;;;;;;;;;;;;;;7.24;71.71;101468.91;5072792;28;19921;-69
2023/04/29 11:23:56;;;;;;;;;;;;;;;7.11;71.97;101475.16;5072551;28;19958;-69
2023/04/29 11:26:22;;;;;;;;;;;;;;;7.09;72.55;101473.59;5071614;28;20391;-71
2023/04/29 11:28:50;;;;;;;;;;;;;;;7.18;72.36;101467.56;5072833;28;20360;-68
2023/04/29 11:31:16;;;;;;;;;;;;;;;7.24;72.74;101466.25;5072797;28;19960;-69
2023/04/29 11:33:41;;;;;;;;;;;;;;;7.35;72.50;101468.88;5071298;28;19920;-69
2023/04/29 11:36:08;;;;;;;;;;;;;;;7.35;70.63;101459.09;5071357;28;19912;-71
2023/04/29 11:38:35;;;;;;;;;;;;;;;7.40;73.30;101470.16;5072843;28;19912;-70
2023/04/29 11:41:00;;;;;;;;;;;;;;;7.59;71.82;101472.16;5073000;28;19920;-71
2023/04/29 11:43:26;;;;;;;;;;;;;;;7.86;70.49;101477.00;5072540;28;19912;-72
2023/04/29 11:45:52;;;;;;;;;;;;;;;7.99;69.62;101474.16;5072680;28;19916;-72
2023/04/29 11:48:20;;;;;;;;;;;;;;;8.00;70.57;101481.13;5072528;28;19916;-71
2023/04/29 11:50:46;;;;;;;;;;;;;;;7.96;70.70;101482.38;5072524;28;19913;-69
2023/04/29 11:53:12;;;;;;;;;;;;;;;8.07;71.29;101477.84;5072544;28;20007;-68
2023/04/29 11:55:37;;;;;;;;;;;;;;;8.30;71.66;101475.91;5072336;28;20001;-70
2023/04/29 11:58:05;;;;;;;;;;;;;;;8.59;69.48;101475.25;5070382;28;19999;-70
2023/04/29 12:00:31;;;;;;;;;;;;;;;8.51;69.65;101472.44;5072407;28;19928;-69
2023/04/29 12:02:57;;;;;;;;;;;;;;;8.34;69.14;101474.69;5072319;28;19912;-72
2023/04/29 12:05:24;;;;;;;;;;;;;;;8.39;70.31;101484.94;5072261;28;19948;-68
2023/04/29 12:07:50;;;;;;;;;;;;;;;8.58;70.27;101486.84;5072459;28;19919;-72
2023/04/29 12:10:15;;;;;;;;;;;;;;;8.61;69.98;101483.94;5072030;28;19912;-69
2023/04/29 12:12:42;;;;;;;;;;;;;;;8.49;67.58;101487.66;5072148;28;19928;-70
2023/04/29 12:15:09;;;;;;;;;;;;;;;7.98;69.60;101491.03;5072054;28;19912;-73
2023/04/29 12:17:34;;;;;;;;;;;;;;;7.91;70.38;101481.91;5071464;28;20353;-68
2023/04/29 12:20:00;;;;;;;;;;;;;;;7.83;70.84;101479.06;5072087;28;19958;-72
2023/04/29 12:22:31;;;;;;;;;;;;;;;7.80;71.23;101482.78;5072011;28;20027;-70
2023/04/29 12:24:57;;;;;;;;;;;;;;;7.88;70.95;101488.31;5072071;28;19958;-68
2023/04/29 12:27:22;;;;;;;;;;;;;;;7.98;68.60;101483.09;5072029;28;19917;-67
2023/04/29 12:29:47;;;;;;;;;;;;;;;8.05;67.68;101487.75;5070863;28;19923;-71
2023/04/29 12:32:17;;;;;;;;;;;;;;;7.99;67.63;101487.41;5071974;28;19913;-72
2023/04/29 12:34:45;;;;;;;;;;;;;;;7.93;67.25;101488.78;5072333;28;19916;-72
2023/04/29 12:37:11;;;;;;;;;;;;;;;7.85;68.28;101490.38;5072164;28;20024;-74
2023/04/29 12:39:37;;;;;;;;;;;;;;;7.75;67.98;101485.81;5072033;28;19951;-70
2023/04/29 12:42:02;;;;;;;;;;;;;;;7.82;69.00;101501.25;5070622;28;19955;-69
2023/04/29 12:44:35;;;;;;;;;;;;;;;7.80;68.81;101500.50;5072204;28;19967;-69